createdAt,value
2022-12-01T00:01:55.104Z,-1.11
2022-12-01T00:04:25.127Z,-1.10
2022-12-01T00:06:55.039Z,-1.11
2022-12-01T00:09:44.805Z,-1.12
2022-12-01T00:12:14.100Z,-1.13
2022-12-01T00:14:44.880Z,-1.14
2022-12-01T00:17:15.670Z,-1.17
2022-12-01T00:19:47.304Z,-1.19
2022-12-01T00:22:19.067Z,-1.23
2022-12-01T00:24:49.634Z,-1.27
2022-12-01T00:27:20.339Z,-1.32
2022-12-01T00:29:51.351Z,-1.34
2022-12-01T00:32:21.985Z,-1.35
2022-12-01T00:34:52.772Z,-1.37
2022-12-01T00:37:23.849Z,-1.39
2022-12-01T00:39:58.869Z,-1.41
2022-12-01T00:42:31.457Z,-1.45
2022-12-01T00:45:02.098Z,-1.49
2022-12-01T00:47:33.197Z,-1.62
2022-12-01T00:50:04.923Z,-1.70
2022-12-01T00:52:36.797Z,-1.71
2022-12-01T00:55:07.383Z,-1.69
2022-12-01T00:57:39.081Z,-1.68
2022-12-01T01:00:11.289Z,-1.68
2022-12-01T01:02:42.709Z,-1.68
2022-12-01T01:05:14.159Z,-1.67
2022-12-01T01:07:44.832Z,-1.65
2022-12-01T01:10:15.990Z,-1.64
2022-12-01T01:12:46.504Z,-1.64
2022-12-01T01:15:17.119Z,-1.68
2022-12-01T01:17:48.095Z,-1.71
2022-12-01T01:20:19.018Z,-1.73
2022-12-01T01:22:50.088Z,-1.72
2022-12-01T01:25:20.615Z,-1.71
2022-12-01T01:27:52.138Z,-1.71
2022-12-01T01:30:24.038Z,-1.73
2022-12-01T01:32:55.086Z,-1.75
2022-12-01T01:35:26.337Z,-1.77
2022-12-01T01:37:57.985Z,-1.81
2022-12-01T01:40:29.215Z,-1.86
2022-12-01T01:43:01.066Z,-1.87
2022-12-01T01:45:31.959Z,-1.89
2022-12-01T01:48:05.949Z,-1.90
2022-12-01T01:50:37.853Z,-1.90
2022-12-01T01:53:14.781Z,-1.91
2022-12-01T01:55:45.761Z,-1.92
2022-12-01T01:58:15.750Z,-1.97
2022-12-01T02:00:47.119Z,-2.05
2022-12-01T02:03:20.271Z,-2.11
2022-12-01T02:05:51.879Z,-2.12
2022-12-01T02:08:23.277Z,-2.14
2022-12-01T02:11:07.362Z,-2.14
2022-12-01T02:13:48.173Z,-2.13
2022-12-01T02:16:30.348Z,-2.14
2022-12-01T02:19:43.870Z,-2.15
2022-12-01T02:22:42.770Z,-2.16
2022-12-01T02:25:30.812Z,-2.18
2022-12-01T02:28:48.335Z,-2.21
2022-12-01T02:31:40.036Z,-2.24
2022-12-01T02:34:41.170Z,-2.23
2022-12-01T02:37:34.670Z,-2.24
2022-12-01T02:40:20.345Z,-2.25
2022-12-01T02:43:03.512Z,-2.28
2022-12-01T02:45:56.573Z,-2.31
2022-12-01T02:48:29.964Z,-2.35
2022-12-01T02:51:07.577Z,-2.35
2022-12-01T02:53:38.572Z,-2.37
2022-12-01T02:56:13.157Z,-2.37
2022-12-01T02:58:45.852Z,-2.36
2022-12-01T03:01:45.492Z,-2.41
2022-12-01T03:04:37.469Z,-2.44
2022-12-01T03:07:46.550Z,-2.46
2022-12-01T03:10:54.024Z,-2.48
2022-12-01T03:13:34.524Z,-2.49
2022-12-01T03:16:30.286Z,-2.50
2022-12-01T03:19:08.283Z,-2.51
2022-12-01T03:21:42.055Z,-2.54
2022-12-01T03:24:22.533Z,-2.63
2022-12-01T03:26:57.870Z,-2.63
2022-12-01T03:30:00.658Z,-2.64
2022-12-01T03:32:50.228Z,-2.63
2022-12-01T03:35:45.383Z,-2.63
2022-12-01T03:38:22.289Z,-2.63
2022-12-01T03:41:10.090Z,-2.62
2022-12-01T03:43:50.311Z,-2.64
2022-12-01T03:46:34.443Z,-2.65
2022-12-01T03:49:06.169Z,-2.65
2022-12-01T03:51:44.006Z,-2.66
2022-12-01T03:54:33.999Z,-2.64
2022-12-01T03:57:08.823Z,-2.63
2022-12-01T03:59:46.713Z,-2.61
2022-12-01T04:02:17.984Z,-2.59
2022-12-01T04:04:49.188Z,-2.59
2022-12-01T04:07:21.043Z,-2.59
2022-12-01T04:09:52.309Z,-2.59
2022-12-01T04:12:36.963Z,-2.59
2022-12-01T04:15:15.370Z,-2.58
2022-12-01T04:17:46.352Z,-2.58
2022-12-01T04:20:18.293Z,-2.57
2022-12-01T04:22:49.638Z,-2.56
2022-12-01T04:25:20.064Z,-2.56
2022-12-01T04:27:50.936Z,-2.57
2022-12-01T04:30:21.578Z,-2.59
2022-12-01T04:32:51.482Z,-2.58
2022-12-01T04:35:24.339Z,-2.59
2022-12-01T04:37:55.440Z,-2.59
2022-12-01T04:40:25.958Z,-2.59
2022-12-01T04:42:56.927Z,-2.59
2022-12-01T04:45:27.654Z,-2.60
2022-12-01T04:48:02.119Z,-2.60
2022-12-01T04:50:32.227Z,-2.60
2022-12-01T04:53:00.721Z,-2.60
2022-12-01T04:55:31.718Z,-2.62
2022-12-01T04:58:03.165Z,-2.61
2022-12-01T05:00:33.997Z,-2.63
2022-12-01T05:03:03.849Z,-2.63
2022-12-01T05:05:33.556Z,-2.65
2022-12-01T05:08:03.889Z,-2.65
2022-12-01T05:10:38.921Z,-2.67
2022-12-01T05:13:07.831Z,-2.70
2022-12-01T05:15:37.797Z,-2.70
2022-12-01T05:18:07.798Z,-2.70
2022-12-01T05:20:56.757Z,-2.72
2022-12-01T05:23:32.489Z,-2.76
2022-12-01T05:26:05.248Z,-2.79
2022-12-01T05:28:36.462Z,-2.80
2022-12-01T05:31:06.555Z,-2.81
2022-12-01T05:33:36.850Z,-2.82
2022-12-01T05:36:05.811Z,-2.83
2022-12-01T05:38:38.539Z,-2.83
2022-12-01T05:41:08.587Z,-2.87
2022-12-01T05:43:38.729Z,-2.90
2022-12-01T05:46:08.882Z,-2.93
2022-12-01T05:48:39.083Z,-2.96
2022-12-01T05:51:10.624Z,-2.97
2022-12-01T05:53:40.382Z,-3.00
2022-12-01T05:56:10.551Z,-3.03
2022-12-01T05:58:40.844Z,-3.05
2022-12-01T06:01:11.153Z,-3.11
2022-12-01T06:03:40.831Z,-3.15
2022-12-01T06:06:11.193Z,-3.17
2022-12-01T06:08:41.110Z,-3.19
2022-12-01T06:11:11.307Z,-3.20
2022-12-01T06:13:40.035Z,-3.21
2022-12-01T06:16:10.123Z,-3.18
2022-12-01T06:18:41.969Z,-3.15
2022-12-01T06:21:12.027Z,-3.12
2022-12-01T06:23:41.397Z,-3.08
2022-12-01T06:26:11.782Z,-3.04
2022-12-01T06:28:41.511Z,-2.99
2022-12-01T06:31:11.187Z,-2.96
2022-12-01T06:33:40.935Z,-2.92
2022-12-01T06:36:11.232Z,-2.87
2022-12-01T06:38:41.057Z,-2.77
2022-12-01T06:41:10.716Z,-2.72
2022-12-01T06:43:41.119Z,-2.66
2022-12-01T06:46:11.170Z,-2.59
2022-12-01T06:48:39.629Z,-2.53
2022-12-01T06:51:11.033Z,-2.47
2022-12-01T06:53:41.380Z,-2.41
2022-12-01T06:56:11.136Z,-2.34
2022-12-01T06:58:41.533Z,-2.28
2022-12-01T07:01:14.671Z,-2.21
2022-12-01T07:03:49.102Z,-2.11
2022-12-01T07:06:19.955Z,-2.04
2022-12-01T07:08:49.761Z,-1.96
2022-12-01T07:11:21.950Z,-1.86
2022-12-01T07:13:56.396Z,-1.74
2022-12-01T07:16:26.550Z,-1.58
2022-12-01T07:18:55.100Z,-1.44
2022-12-01T07:21:25.266Z,-1.32
2022-12-01T07:23:55.679Z,-1.21
2022-12-01T07:26:25.094Z,-1.10
2022-12-01T07:28:54.819Z,-1.02
2022-12-01T07:31:24.619Z,-0.93
2022-12-01T07:33:56.398Z,-0.81
2022-12-01T07:36:26.421Z,-0.72
2022-12-01T07:38:56.546Z,-0.65
2022-12-01T07:41:26.619Z,-0.55
2022-12-01T07:43:58.907Z,-0.42
2022-12-01T07:46:29.455Z,-0.30
2022-12-01T07:48:59.927Z,-0.17
2022-12-01T07:51:30.155Z,-0.01
2022-12-01T07:54:06.752Z,0.11
2022-12-01T07:56:36.364Z,0.21
2022-12-01T07:59:06.688Z,0.39
2022-12-01T08:01:39.261Z,0.58
2022-12-01T08:04:12.120Z,0.78
2022-12-01T08:06:42.133Z,1.00
2022-12-01T08:09:12.226Z,1.22
2022-12-01T08:11:42.517Z,1.37
2022-12-01T08:14:12.524Z,1.54
2022-12-01T08:16:41.838Z,1.76
2022-12-01T08:19:11.541Z,1.93
2022-12-01T08:21:42.366Z,2.09
2022-12-01T08:24:12.384Z,2.23
2022-12-01T08:26:41.063Z,2.39
2022-12-01T08:29:13.612Z,2.54
2022-12-01T08:31:47.013Z,2.73
2022-12-01T08:34:16.729Z,2.91
2022-12-01T08:36:45.232Z,3.12
2022-12-01T08:39:16.496Z,3.30
2022-12-01T08:41:48.276Z,3.47
2022-12-01T08:44:18.150Z,3.62
2022-12-01T08:46:47.992Z,3.71
2022-12-01T08:49:17.892Z,3.87
2022-12-01T08:51:47.621Z,4.08
2022-12-01T08:54:17.328Z,4.28
2022-12-01T08:56:47.537Z,4.47
2022-12-01T08:59:17.793Z,4.59
2022-12-01T09:01:54.521Z,4.74
2022-12-01T09:04:27.836Z,4.81
2022-12-01T09:06:58.445Z,4.83
2022-12-01T09:09:28.989Z,4.94
2022-12-01T09:11:58.840Z,5.11
2022-12-01T09:14:28.508Z,5.26
2022-12-01T09:16:58.176Z,5.42
2022-12-01T09:19:29.102Z,5.51
2022-12-01T09:21:59.615Z,5.60
2022-12-01T09:24:29.791Z,5.76
2022-12-01T09:27:00.843Z,5.89
2022-12-01T09:29:31.771Z,5.97
2022-12-01T09:32:01.895Z,6.02
2022-12-01T09:34:31.883Z,6.06
2022-12-01T09:37:01.183Z,6.05
2022-12-01T09:39:30.925Z,6.01
2022-12-01T09:42:19.047Z,5.95
2022-12-01T09:44:51.717Z,5.89
2022-12-01T09:47:30.625Z,5.78
2022-12-01T09:50:02.701Z,5.77
2022-12-01T09:52:46.769Z,5.75
2022-12-01T09:55:17.785Z,5.84
2022-12-01T09:57:55.938Z,5.93
2022-12-01T10:00:46.756Z,5.98
2022-12-01T10:03:31.315Z,6.09
2022-12-01T10:06:27.357Z,6.18
2022-12-01T10:09:14.412Z,6.20
2022-12-01T10:11:46.364Z,6.23
2022-12-01T10:14:20.128Z,6.32
2022-12-01T10:17:00.147Z,6.47
2022-12-01T10:19:42.429Z,6.62
2022-12-01T10:22:39.878Z,6.76
2022-12-01T10:25:21.099Z,6.90
2022-12-01T10:28:29.599Z,6.98
2022-12-01T10:31:20.952Z,7.05
2022-12-01T10:34:04.413Z,7.11
2022-12-01T10:36:35.136Z,7.16
2022-12-01T10:39:07.508Z,7.19
2022-12-01T10:41:39.845Z,7.20
2022-12-01T10:44:10.677Z,7.21
2022-12-01T10:46:56.216Z,7.20
2022-12-01T10:49:38.234Z,7.18
2022-12-01T10:52:08.318Z,7.20
2022-12-01T10:54:41.473Z,7.20
2022-12-01T10:57:18.097Z,7.21
2022-12-01T10:59:57.238Z,7.22
2022-12-01T11:02:29.943Z,7.22
2022-12-01T11:05:06.706Z,7.23
2022-12-01T11:07:48.223Z,7.22
2022-12-01T11:10:29.600Z,7.23
2022-12-01T11:13:07.166Z,7.28
2022-12-01T11:15:49.913Z,7.35
2022-12-01T11:18:21.457Z,7.42
2022-12-01T11:21:14.782Z,7.47
2022-12-01T11:23:52.578Z,7.56
2022-12-01T11:26:28.172Z,7.63
2022-12-01T11:29:00.915Z,7.74
2022-12-01T11:31:48.342Z,7.87
2022-12-01T11:34:27.517Z,8.03
2022-12-01T11:37:02.887Z,8.22
2022-12-01T11:39:42.128Z,8.33
2022-12-01T11:42:31.745Z,8.45
2022-12-01T11:45:27.500Z,8.58
2022-12-01T11:48:13.130Z,8.71
2022-12-01T11:50:45.545Z,8.76
2022-12-01T11:53:30.498Z,8.81
2022-12-01T11:56:22.905Z,8.81
2022-12-01T11:59:03.580Z,8.82
2022-12-01T12:02:01.913Z,8.88
2022-12-01T12:04:46.401Z,8.95
2022-12-01T12:07:40.175Z,9.07
2022-12-01T12:10:37.880Z,9.18
2022-12-01T12:13:17.281Z,9.21
2022-12-01T12:16:11.508Z,9.20
2022-12-01T12:18:46.263Z,9.25
2022-12-01T12:21:34.145Z,9.31
2022-12-01T12:24:31.732Z,9.30
2022-12-01T12:27:15.804Z,9.30
2022-12-01T12:30:06.716Z,9.33
2022-12-01T12:33:02.597Z,9.32
2022-12-01T12:36:06.163Z,9.24
2022-12-01T12:38:55.438Z,9.19
2022-12-01T12:41:39.625Z,9.15
2022-12-01T12:44:16.397Z,9.14
2022-12-01T12:47:31.341Z,9.11
2022-12-01T12:50:26.587Z,9.08
2022-12-01T12:53:03.999Z,9.07
2022-12-01T12:55:43.492Z,9.04
2022-12-01T12:59:04.406Z,9.00
2022-12-01T13:01:44.685Z,8.95
2022-12-01T13:04:25.034Z,8.90
2022-12-01T13:07:03.991Z,8.83
2022-12-01T13:09:42.426Z,8.76
2022-12-01T13:12:40.901Z,8.69
2022-12-01T13:15:21.821Z,8.65
2022-12-01T13:18:04.363Z,8.69
2022-12-01T13:20:37.063Z,8.73
2022-12-01T13:23:15.066Z,8.69
2022-12-01T13:25:49.308Z,8.57
2022-12-01T13:28:24.219Z,8.38
2022-12-01T13:31:10.672Z,8.24
2022-12-01T13:33:47.079Z,8.11
2022-12-01T13:36:45.595Z,8.00
2022-12-01T13:39:22.211Z,7.85
2022-12-01T13:42:07.936Z,7.70
2022-12-01T13:44:40.840Z,7.57
2022-12-01T13:47:14.026Z,7.44
2022-12-01T13:49:45.634Z,7.35
2022-12-01T13:52:28.555Z,7.26
2022-12-01T13:55:27.506Z,7.14
2022-12-01T13:57:57.755Z,6.94
2022-12-01T14:00:31.037Z,6.82
2022-12-01T14:03:16.871Z,6.72
2022-12-01T14:06:06.007Z,6.63
2022-12-01T14:08:48.323Z,6.56
2022-12-01T14:11:25.502Z,6.54
2022-12-01T14:14:26.060Z,6.55
2022-12-01T14:17:01.307Z,6.51
2022-12-01T14:19:53.071Z,6.46
2022-12-01T14:22:44.425Z,6.41
2022-12-01T14:25:33.094Z,6.32
2022-12-01T14:28:04.363Z,6.22
2022-12-01T14:30:46.986Z,6.10
2022-12-01T14:33:46.664Z,5.96
2022-12-01T14:36:37.870Z,5.77
2022-12-01T14:39:22.635Z,5.60
2022-12-01T14:41:56.929Z,5.48
2022-12-01T14:44:48.628Z,5.39
2022-12-01T14:47:38.219Z,5.33
2022-12-01T14:50:21.106Z,5.31
2022-12-01T14:53:07.505Z,5.29
2022-12-01T14:55:48.348Z,5.28
2022-12-01T14:58:25.618Z,5.23
2022-12-01T15:01:03.925Z,5.18
2022-12-01T15:03:42.939Z,5.11
2022-12-01T15:06:19.210Z,5.01
2022-12-01T15:09:32.311Z,4.91
2022-12-01T15:12:00.541Z,4.75
2022-12-01T15:14:35.838Z,4.64
2022-12-01T15:17:09.255Z,4.53
2022-12-01T15:19:44.297Z,4.44
2022-12-01T15:22:17.806Z,4.37
2022-12-01T15:24:49.670Z,4.27
2022-12-01T15:27:30.678Z,4.19
2022-12-01T15:30:05.080Z,4.13
2022-12-01T15:32:41.312Z,4.06
2022-12-01T15:35:20.259Z,4.00
2022-12-01T15:37:51.221Z,3.97
2022-12-01T15:41:06.145Z,3.92
2022-12-01T15:43:28.577Z,3.79
2022-12-01T15:46:00.601Z,3.72
2022-12-01T15:48:36.111Z,3.63
2022-12-01T15:51:18.947Z,3.54
2022-12-01T15:53:55.979Z,3.46
2022-12-01T15:56:29.524Z,3.42
2022-12-01T15:59:09.738Z,3.37
2022-12-01T16:01:41.344Z,3.30
2022-12-01T16:04:23.193Z,3.23
2022-12-01T16:07:01.072Z,3.17
2022-12-01T16:09:59.578Z,3.13
2022-12-01T16:12:34.075Z,3.10
2022-12-01T16:15:15.839Z,3.03
2022-12-01T16:17:53.022Z,3.02
2022-12-01T16:20:26.907Z,3.03
2022-12-01T16:22:59.554Z,3.05
2022-12-01T16:25:33.891Z,3.05
2022-12-01T16:28:05.744Z,3.04
2022-12-01T16:30:40.128Z,3.00
2022-12-01T16:33:22.551Z,3.00
2022-12-01T16:35:52.971Z,2.99
2022-12-01T16:38:24.851Z,3.01
2022-12-01T16:40:59.259Z,3.01
2022-12-01T16:43:30.234Z,3.02
2022-12-01T16:46:03.974Z,3.04
2022-12-01T16:48:35.342Z,3.06
2022-12-01T16:51:07.937Z,3.05
2022-12-01T16:53:37.977Z,3.03
2022-12-01T16:56:13.013Z,3.02
2022-12-01T16:58:45.069Z,3.00
2022-12-01T17:01:14.729Z,3.02
2022-12-01T17:03:44.972Z,3.03
2022-12-01T17:06:19.241Z,3.01
2022-12-01T17:08:49.263Z,2.98
2022-12-01T17:11:18.900Z,2.97
2022-12-01T17:13:48.960Z,2.99
2022-12-01T17:16:19.214Z,3.00
2022-12-01T17:18:49.225Z,2.99
2022-12-01T17:21:19.011Z,3.00
2022-12-01T17:23:49.347Z,2.99
2022-12-01T17:26:20.442Z,3.00
2022-12-01T17:28:50.432Z,3.00
2022-12-01T17:31:19.031Z,3.00
2022-12-01T17:33:49.800Z,2.98
2022-12-01T17:36:20.037Z,2.94
2022-12-01T17:38:50.764Z,2.92
2022-12-01T17:41:25.928Z,2.92
2022-12-01T17:43:57.465Z,2.92
2022-12-01T17:46:27.723Z,2.93
2022-12-01T17:48:58.058Z,2.94
2022-12-01T17:51:28.594Z,2.94
2022-12-01T17:53:58.470Z,2.95
2022-12-01T17:56:28.569Z,2.95
2022-12-01T17:58:58.644Z,2.94
2022-12-01T18:01:30.364Z,2.94
2022-12-01T18:04:00.731Z,2.95
2022-12-01T18:06:30.803Z,2.97
2022-12-01T18:09:01.949Z,2.99
2022-12-01T18:11:32.118Z,3.01
2022-12-01T18:14:02.175Z,3.03
2022-12-01T18:16:33.100Z,3.05
2022-12-01T18:19:03.758Z,3.07
2022-12-01T18:21:33.761Z,3.09
2022-12-01T18:24:05.484Z,3.11
2022-12-01T18:26:34.105Z,3.11
2022-12-01T18:29:08.476Z,3.10
2022-12-01T18:31:38.382Z,3.11
2022-12-01T18:34:10.293Z,3.11
2022-12-01T18:36:42.682Z,3.12
2022-12-01T18:39:12.922Z,3.15
2022-12-01T18:41:41.551Z,3.17
2022-12-01T18:44:11.500Z,3.19
2022-12-01T18:46:41.833Z,3.21
2022-12-01T18:49:12.230Z,3.24
2022-12-01T18:51:42.193Z,3.25
2022-12-01T18:54:14.476Z,3.26
2022-12-01T18:56:45.845Z,3.26
2022-12-01T18:59:17.565Z,3.25
2022-12-01T19:01:48.926Z,3.20
2022-12-01T19:04:19.795Z,3.16
2022-12-01T19:06:49.947Z,3.17
2022-12-01T19:09:19.999Z,3.19
2022-12-01T19:11:50.159Z,3.21
2022-12-01T19:14:20.276Z,3.24
2022-12-01T19:16:50.970Z,3.27
2022-12-01T19:19:20.927Z,3.29
2022-12-01T19:21:51.415Z,3.29
2022-12-01T19:24:21.543Z,3.27
2022-12-01T19:26:51.896Z,3.27
2022-12-01T19:29:21.984Z,3.26
2022-12-01T19:31:52.351Z,3.24
2022-12-01T19:34:22.366Z,3.22
2022-12-01T19:36:54.013Z,3.24
2022-12-01T19:39:24.067Z,3.27
2022-12-01T19:41:57.675Z,3.32
2022-12-01T19:44:28.526Z,3.36
2022-12-01T19:46:58.917Z,3.39
2022-12-01T19:49:28.884Z,3.42
2022-12-01T19:51:58.982Z,3.45
2022-12-01T19:54:28.882Z,3.47
2022-12-01T19:56:59.113Z,3.48
2022-12-01T19:59:29.120Z,3.48
2022-12-01T20:01:59.306Z,3.48
2022-12-01T20:04:29.414Z,3.49
2022-12-01T20:06:59.839Z,3.52
2022-12-01T20:09:29.447Z,3.52
2022-12-01T20:11:59.510Z,3.52
2022-12-01T20:14:29.482Z,3.54
2022-12-01T20:16:59.715Z,3.56
2022-12-01T20:19:29.334Z,3.57
2022-12-01T20:21:59.450Z,3.58
2022-12-01T20:24:29.589Z,3.58
2022-12-01T20:26:59.246Z,3.57
2022-12-01T20:29:30.284Z,3.57
2022-12-01T20:32:03.246Z,3.58
2022-12-01T20:34:36.621Z,3.57
2022-12-01T20:37:06.583Z,3.58
2022-12-01T20:39:38.421Z,3.60
2022-12-01T20:42:09.898Z,3.61
2022-12-01T20:44:40.707Z,3.63
2022-12-01T20:47:11.264Z,3.63
2022-12-01T20:49:41.110Z,3.63
2022-12-01T20:52:11.375Z,3.64
2022-12-01T20:54:42.818Z,3.64
2022-12-01T20:57:12.592Z,3.66
2022-12-01T20:59:42.519Z,3.66
2022-12-01T21:02:12.568Z,3.67
2022-12-01T21:04:42.740Z,3.68
2022-12-01T21:07:12.487Z,3.71
2022-12-01T21:09:42.531Z,3.71
2022-12-01T21:12:35.777Z,3.71
2022-12-01T21:15:28.847Z,3.71
2022-12-01T21:18:17.526Z,3.73
2022-12-01T21:20:51.017Z,3.75
2022-12-01T21:23:20.697Z,3.77
2022-12-01T21:25:51.548Z,3.78
2022-12-01T21:28:24.387Z,3.78
2022-12-01T21:31:07.977Z,3.77
2022-12-01T21:33:41.297Z,3.76
2022-12-01T21:36:18.925Z,3.76
2022-12-01T21:38:56.253Z,3.75
2022-12-01T21:41:28.148Z,3.72
2022-12-01T21:44:08.461Z,3.69
2022-12-01T21:46:41.600Z,3.67
2022-12-01T21:49:20.038Z,3.64
2022-12-01T21:51:52.506Z,3.67
2022-12-01T21:54:23.090Z,3.68
2022-12-01T21:56:56.690Z,3.72
2022-12-01T21:59:26.290Z,3.70
2022-12-01T22:01:57.915Z,3.66
2022-12-01T22:04:31.690Z,3.63
2022-12-01T22:07:01.615Z,3.61
2022-12-01T22:09:35.408Z,3.58
2022-12-01T22:12:32.534Z,3.54
2022-12-01T22:15:12.628Z,3.51
2022-12-01T22:17:42.036Z,3.48
2022-12-01T22:20:23.310Z,3.47
2022-12-01T22:22:53.608Z,3.47
2022-12-01T22:25:26.751Z,3.47
2022-12-01T22:28:00.318Z,3.48
2022-12-01T22:30:30.100Z,3.48
2022-12-01T22:33:05.372Z,3.49
2022-12-01T22:35:51.170Z,3.47
2022-12-01T22:38:37.724Z,3.46
2022-12-01T22:41:16.247Z,3.45
2022-12-01T22:43:47.685Z,3.44
2022-12-01T22:46:36.274Z,3.42
2022-12-01T22:49:20.221Z,3.42
2022-12-01T22:51:56.488Z,3.41
2022-12-01T22:54:32.708Z,3.39
2022-12-01T22:57:18.956Z,3.37
2022-12-01T22:59:50.683Z,3.38
2022-12-01T23:02:34.393Z,3.40
2022-12-01T23:05:25.513Z,3.41
2022-12-01T23:07:56.429Z,3.42
2022-12-01T23:10:31.894Z,3.44
2022-12-01T23:13:14.598Z,3.43
2022-12-01T23:15:49.498Z,3.40
2022-12-01T23:18:22.829Z,3.38
2022-12-01T23:20:55.478Z,3.36
2022-12-01T23:23:34.244Z,3.36
2022-12-01T23:26:08.362Z,3.36
2022-12-01T23:28:41.695Z,3.37
2022-12-01T23:31:11.938Z,3.37
2022-12-01T23:33:41.761Z,3.38
2022-12-01T23:36:20.678Z,3.38
2022-12-01T23:38:57.928Z,3.40
2022-12-01T23:41:37.516Z,3.42
2022-12-01T23:44:39.363Z,3.43
2022-12-01T23:47:23.174Z,3.45
2022-12-01T23:50:00.447Z,3.46
2022-12-01T23:52:36.485Z,3.47
2022-12-01T23:55:20.821Z,3.48
2022-12-01T23:57:51.762Z,3.49
